Time;durP1;ratioP1;P1;durP2;ratioP2;P2;SDS_P1;SDS_P2;PMS_P1;PMS_P2;Temp;Humidity;BMP_temperature;BMP_pressure;BME280_temperature;BME280_humidity;BME280_pressure;Samples;Min_cycle;Max_cycle;Signal;HPM_P1;HPM_P2
2021/12/12 14:28:06;;;;;;;;;15.25;14.25;;;;;12.27;100.00;102231.53;5348750;23;70580;-89
2021/12/12 14:30:36;;;;;;;;;13.80;12.20;;;;;12.27;100.00;102226.22;4887905;29;46902;-86
2021/12/12 14:33:05;;;;;;;;;11.60;11.60;;;;;12.27;100.00;102229.72;4886080;29;45532;-85
2021/12/12 14:35:56;;;;;;;;;14.00;14.00;;;;;12.28;100.00;102231.50;4886651;29;44813;-86
2021/12/12 14:38:23;;;;;;;;;12.60;12.60;;;;;12.26;100.00;102230.69;4885239;29;44731;-84
2021/12/12 14:40:52;;;;;;;;;10.00;10.00;;;;;12.23;100.00;102241.50;4871379;29;45401;-86
2021/12/12 14:43:35;;;;;;;;;11.80;11.20;;;;;12.21;100.00;102240.72;4889626;29;45254;-85
2021/12/12 14:46:06;;;;;;;;;14.80;13.00;;;;;12.13;100.00;102236.69;4891714;29;44876;-86
2021/12/12 14:48:40;;;;;;;;;14.40;12.00;;;;;12.05;100.00;102240.63;4892961;29;44789;-86
2021/12/12 14:51:13;;;;;;;;;15.20;14.20;;;;;12.01;100.00;102246.16;4893792;29;45278;-86
2021/12/12 14:53:43;;;;;;;;;13.40;13.40;;;;;11.97;100.00;102248.09;4892088;29;44615;-86
2021/12/12 14:56:13;;;;;;;;;13.80;12.80;;;;;11.97;100.00;102248.09;4887402;29;45432;-86
2021/12/12 14:58:59;;;;;;;;;14.00;14.00;;;;;11.91;100.00;102255.53;4869567;29;45577;-87
2021/12/12 15:01:33;;;;;;;;;19.75;18.75;;;;;11.86;100.00;102252.22;4887287;29;45161;-85
2021/12/12 15:04:08;;;;;;;;;16.20;14.80;;;;;11.85;100.00;102253.19;4886960;29;44735;-86
2021/12/12 15:06:43;;;;;;;;;19.00;16.60;;;;;11.82;100.00;102257.69;4885397;29;45507;-86
2021/12/12 15:09:19;;;;;;;;;18.00;14.25;;;;;11.80;100.00;102261.34;4874404;29;45592;-86
2021/12/12 15:12:00;;;;;;;;;16.60;14.00;;;;;11.79;100.00;102256.94;4898137;29;45377;-88
2021/12/12 15:14:32;;;;;;;;;20.80;17.80;;;;;11.72;100.00;102260.84;4887701;29;45146;-87
2021/12/12 15:17:05;;;;;;;;;18.25;18.25;;;;;11.69;100.00;102259.16;4887876;29;45099;-86
2021/12/12 15:19:35;;;;;;;;;17.75;16.00;;;;;11.70;100.00;102263.59;4874345;29;44975;-89
2021/12/12 15:22:10;;;;;;;;;17.50;16.00;;;;;11.66;100.00;102253.16;4885635;29;45323;-86
2021/12/12 15:25:01;;;;;;;;;18.00;15.80;;;;;11.66;100.00;102262.00;4884542;29;44815;-85
2021/12/12 15:27:31;;;;;;;;;17.60;17.60;;;;;11.67;100.00;102269.03;4886203;29;44798;-86
2021/12/12 15:29:59;;;;;;;;;17.00;17.00;;;;;11.69;100.00;102261.84;4896867;29;44868;-85
2021/12/12 15:32:29;;;;;;;;;21.00;19.50;;;;;11.67;100.00;102262.84;4883338;29;45459;-86
2021/12/12 15:35:03;;;;;;;;;17.40;16.40;;;;;11.67;100.00;102268.19;4877874;29;44933;-86
2021/12/12 15:37:39;;;;;;;;;23.00;21.50;;;;;11.63;100.00;102270.13;4868539;29;44768;-85
2021/12/12 15:40:17;;;;;;;;;20.50;18.25;;;;;11.61;100.00;102272.00;4886380;29;44860;-85
2021/12/12 15:42:47;;;;;;;;;23.25;22.00;;;;;11.58;100.00;102275.66;4866898;29;45523;-85
2021/12/12 15:45:20;;;;;;;;;25.20;22.20;;;;;11.56;100.00;102282.00;4884874;29;45317;-85
2021/12/12 15:47:48;;;;;;;;;22.75;22.00;;;;;11.53;100.00;102283.00;4869123;29;44925;-85
2021/12/12 15:50:23;;;;;;;;;27.50;23.50;;;;;11.49;100.00;102292.03;4890161;29;44737;-84
2021/12/12 15:52:53;;;;;;;;;27.00;23.75;;;;;11.45;100.00;102285.13;4890212;29;45265;-84
2021/12/12 15:55:26;;;;;;;;;27.75;27.75;;;;;11.43;100.00;102291.47;4870637;29;44890;-84
2021/12/12 15:57:56;;;;;;;;;28.00;26.50;;;;;11.41;100.00;102290.66;4882131;29;44805;-84
2021/12/12 16:00:36;;;;;;;;;28.75;27.25;;;;;11.43;100.00;102294.13;4884805;29;45419;-83
2021/12/12 16:03:08;;;;;;;;;28.25;23.50;;;;;11.41;100.00;102294.22;4880044;29;45293;-83
2021/12/12 16:05:45;;;;;;;;;29.50;24.50;;;;;11.37;100.00;102294.41;4902553;29;45278;-85
2021/12/12 16:08:13;;;;;;;;;25.50;22.50;;;;;11.31;100.00;102301.75;4885198;29;45514;-85
2021/12/12 16:10:47;;;;;;;;;28.50;25.75;;;;;11.29;100.00;102292.94;4875935;29;45605;-86
2021/12/12 16:13:41;;;;;;;;;19.75;18.00;;;;;11.29;100.00;102300.06;4884015;29;45168;-86
2021/12/12 16:16:24;;;;;;;;;32.00;29.00;;;;;11.29;100.00;102295.63;4881548;29;45353;-86
2021/12/12 16:19:00;;;;;;;;;30.50;28.25;;;;;11.26;100.00;102292.22;4882491;29;44932;-86
2021/12/12 16:21:27;;;;;;;;;27.50;24.50;;;;;11.25;100.00;102295.81;4885006;29;45273;-84
2021/12/12 16:23:57;;;;;;;;;37.75;31.25;;;;;11.26;100.00;102300.19;4871032;29;45426;-85
2021/12/12 16:26:40;;;;;;;;;29.25;26.50;;;;;11.28;100.00;102303.66;4862468;29;44878;-84
2021/12/12 16:29:09;;;;;;;;;37.75;30.00;;;;;11.24;100.00;102297.63;4875011;29;44856;-86
2021/12/12 16:31:35;;;;;;;;;35.25;31.00;;;;;11.24;100.00;102307.41;4881356;29;45325;-85
2021/12/12 16:34:07;;;;;;;;;34.25;32.00;;;;;11.20;100.00;102303.13;4865219;29;46806;-86
2021/12/12 16:36:36;;;;;;;;;34.50;30.75;;;;;11.18;100.00;102303.22;4883578;29;45387;-85
2021/12/12 16:39:13;;;;;;;;;36.25;32.00;;;;;11.15;100.00;102299.81;4887520;29;45432;-87
2021/12/12 16:41:43;;;;;;;;;36.50;30.00;;;;;11.18;100.00;102302.34;4871406;29;44888;-84
2021/12/12 16:44:20;;;;;;;;;36.00;32.00;;;;;11.17;100.00;102297.94;4880478;29;45458;-85
2021/12/12 16:46:48;;;;;;;;;37.00;33.00;;;;;11.18;100.00;102297.03;4867376;29;45328;-87
2021/12/12 16:49:24;;;;;;;;;41.50;31.25;;;;;11.17;100.00;102308.59;4872449;29;44861;-87
2021/12/12 16:51:58;;;;;;;;;40.00;35.25;;;;;11.15;100.00;102305.16;4872606;29;44891;-87
2021/12/12 16:54:33;;;;;;;;;30.50;29.50;;;;;11.11;100.00;102309.72;4888720;29;45654;-86
2021/12/12 16:57:05;;;;;;;;;36.75;32.25;;;;;11.11;100.00;102301.75;4872169;29;44765;-87
2021/12/12 16:59:35;;;;;;;;;41.33;33.33;;;;;11.09;100.00;102302.75;4854759;29;45482;-85
2021/12/12 17:02:03;;;;;;;;;34.25;32.25;;;;;11.09;100.00;102310.75;4887460;29;45068;-87
2021/12/12 17:04:30;;;;;;;;;37.00;33.25;;;;;11.08;100.00;102307.22;4886935;29;46785;-87
2021/12/12 17:07:02;;;;;;;;;37.75;32.75;;;;;11.05;100.00;102307.34;4883199;29;45660;-88
2021/12/12 17:09:37;;;;;;;;;40.75;33.50;;;;;11.07;100.00;102318.75;4865245;29;44896;-85
2021/12/12 17:12:18;;;;;;;;;36.00;29.00;;;;;11.05;100.00;102317.97;4882369;29;44742;-86
2021/12/12 17:14:49;;;;;;;;;40.25;33.00;;;;;11.03;100.00;102328.69;4884290;29;45220;-84
2021/12/12 17:17:23;;;;;;;;;38.25;32.00;;;;;11.03;100.00;102328.69;4865444;29;45172;-85
2021/12/12 17:19:50;;;;;;;;;31.75;26.50;;;;;11.04;100.00;102335.72;4887257;29;45506;-84
2021/12/12 17:22:19;;;;;;;;;35.00;30.50;;;;;11.04;100.00;102335.72;4887968;29;45301;-85
2021/12/12 17:24:48;;;;;;;;;27.50;27.00;;;;;11.00;100.00;102339.44;4891538;29;45541;-83
2021/12/12 17:27:19;;;;;;;;;35.75;31.75;;;;;10.98;100.00;102330.69;4892923;29;45303;-84
2021/12/12 17:29:48;;;;;;;;;22.00;20.00;;;;;10.97;100.00;102336.06;4886869;29;44807;-84
2021/12/12 17:32:36;;;;;;;;;33.25;31.00;;;;;10.96;100.00;102337.84;4881758;29;44827;-83
2021/12/12 17:35:04;;;;;;;;;37.50;32.00;;;;;10.93;100.00;102338.00;4862920;29;45668;-83
2021/12/12 17:37:39;;;;;;;;;27.50;27.00;;;;;10.92;100.00;102335.38;4881777;29;45493;-83
2021/12/12 17:40:11;;;;;;;;;29.75;22.75;;;;;10.90;100.00;102340.78;4864570;29;45373;-83
2021/12/12 17:42:43;;;;;;;;;29.50;26.75;;;;;10.88;100.00;102345.31;4881497;29;45318;-84
2021/12/12 17:45:40;;;;;;;;;29.25;25.25;;;;;10.86;100.00;102346.28;4866629;29;45330;-83
2021/12/12 17:48:08;;;;;;;;;36.25;30.50;;;;;10.83;100.00;102344.66;4886744;29;45602;-83
2021/12/12 17:51:11;;;;;;;;;30.50;28.25;;;;;10.85;100.00;102341.91;4870542;29;44806;-84
2021/12/12 17:53:42;;;;;;;;;29.50;25.50;;;;;10.83;100.00;102347.31;4883600;29;44885;-83
2021/12/12 17:56:28;;;;;;;;;28.00;25.50;;;;;10.83;100.00;102347.31;4880462;29;45944;-84
2021/12/12 17:59:04;;;;;;;;;29.50;27.50;;;;;10.82;100.00;102348.19;4891524;29;44716;-84
2021/12/12 18:01:46;;;;;;;;;27.50;23.75;;;;;10.81;100.00;102355.31;4887330;29;44881;-83
2021/12/12 18:04:15;;;;;;;;;22.75;21.75;;;;;10.79;100.00;102351.00;4882947;29;45428;-83
2021/12/12 18:06:50;;;;;;;;;29.25;28.25;;;;;10.78;100.00;102347.50;4886399;29;45239;-84
2021/12/12 18:09:21;;;;;;;;;27.75;25.25;;;;;10.78;100.00;102350.16;4864114;29;45277;-84
2021/12/12 18:12:01;;;;;;;;;26.50;21.00;;;;;10.75;100.00;102352.06;4880866;29;45379;-83
2021/12/12 18:14:38;;;;;;;;;29.25;29.00;;;;;10.76;100.00;102356.44;4873527;29;45326;-85
2021/12/12 18:17:18;;;;;;;;;33.00;31.50;;;;;10.78;100.00;102351.91;4881049;29;45410;-83
2021/12/12 18:20:21;;;;;;;;;38.25;32.75;;;;;10.77;100.00;102358.16;4882733;29;44700;-82
2021/12/12 18:22:54;;;;;;;;;35.00;32.25;;;;;10.75;100.00;102355.59;4865239;29;45377;-83
2021/12/12 18:25:25;;;;;;;;;38.75;34.00;;;;;10.75;100.00;102357.38;4864910;29;45849;-85
2021/12/12 18:28:01;;;;;;;;;31.00;27.50;;;;;10.75;100.00;102362.69;4881288;29;45093;-85
2021/12/12 18:30:37;;;;;;;;;32.50;31.00;;;;;10.77;100.00;102358.16;4868150;29;44799;-84
2021/12/12 18:33:26;;;;;;;;;38.75;34.75;;;;;10.80;100.00;102366.88;4861305;29;44710;-83
2021/12/12 18:35:56;;;;;;;;;39.50;35.75;;;;;10.80;100.00;102356.25;4873307;29;45451;-84
2021/12/12 18:38:50;;;;;;;;;45.00;36.50;;;;;10.82;100.00;102356.19;4892440;29;45489;-83
2021/12/12 18:41:27;;;;;;;;;48.67;37.67;;;;;10.83;100.00;102355.28;4885266;29;45555;-84
2021/12/12 18:44:00;;;;;;;;;46.00;35.67;;;;;10.85;100.00;102357.84;4864146;29;44719;-84
2021/12/12 18:46:32;;;;;;;;;48.00;37.33;;;;;10.84;100.00;102345.50;4864823;29;45754;-84
2021/12/12 18:49:01;;;;;;;;;48.33;38.00;;;;;10.85;100.00;102353.41;4885545;29;45424;-83
2021/12/12 18:51:40;;;;;;;;;46.00;38.00;;;;;10.87;100.00;102369.28;4883952;29;44769;-84
2021/12/12 18:54:12;;;;;;;;;48.33;38.33;;;;;10.85;100.00;102365.84;4871575;29;45431;-84
2021/12/12 18:56:46;;;;;;;;;46.00;36.67;;;;;10.82;100.00;102364.16;4881967;29;44687;-84
2021/12/12 18:59:21;;;;;;;;;46.33;36.33;;;;;10.81;100.00;102365.94;4869702;29;45538;-84
2021/12/12 19:01:51;;;;;;;;;48.67;40.00;;;;;10.82;100.00;102370.34;4866429;29;45335;-83
2021/12/12 19:04:28;;;;;;;;;47.33;38.00;;;;;10.77;100.00;102361.69;4883648;29;45394;-84
2021/12/12 19:06:54;;;;;;;;;46.33;38.00;;;;;10.80;100.00;102366.03;4884673;29;44902;-83
2021/12/12 19:09:26;;;;;;;;;45.00;37.33;;;;;10.81;100.00;102359.78;4888726;29;45510;-83
2021/12/12 19:11:53;;;;;;;;;46.00;38.33;;;;;10.79;100.00;102359.00;4883968;29;44770;-83
2021/12/12 19:14:28;;;;;;;;;50.33;39.33;;;;;10.77;100.00;102355.50;4864787;29;45398;-84
2021/12/12 19:16:58;;;;;;;;;45.67;39.00;;;;;10.76;100.00;102357.31;4869423;29;44964;-82
2021/12/12 19:19:31;;;;;;;;;45.00;34.50;;;;;10.73;100.00;102360.13;4870485;29;47093;-82
2021/12/12 19:22:01;;;;;;;;;40.75;34.00;;;;;10.73;100.00;102364.53;4887022;29;44754;-83
2021/12/12 19:24:29;;;;;;;;;49.75;36.50;;;;;10.71;100.00;102361.94;4884129;29;44820;-84
2021/12/12 19:27:17;;;;;;;;;42.75;35.00;;;;;10.71;100.00;102369.06;4863602;29;44971;-84
2021/12/12 19:29:47;;;;;;;;;42.25;33.25;;;;;10.71;100.00;102361.09;4880062;29;45287;-83
2021/12/12 19:32:18;;;;;;;;;43.50;37.25;;;;;10.72;100.00;102363.66;4884457;29;44738;-85
2021/12/12 19:34:51;;;;;;;;;40.00;33.00;;;;;10.72;100.00;102361.00;4880605;29;45206;-85
2021/12/12 19:37:26;;;;;;;;;44.33;36.00;;;;;10.73;100.00;102356.56;4871052;29;44827;-86
2021/12/12 19:40:04;;;;;;;;;38.67;34.67;;;;;10.69;100.00;102347.88;4887598;29;45147;-85
2021/12/12 19:42:53;;;;;;;;;;;;;;;;;;;;;
2021/12/12 19:45:44;;;;;;;;;;;;;;;;;;;;;
2021/12/12 19:48:40;;;;;;;;;46.67;36.00;;;;;10.65;100.00;102346.25;4887576;29;68831;-86
2021/12/12 19:51:22;;;;;;;;;43.75;33.25;;;;;10.68;100.00;102374.50;4868047;29;45130;-84
2021/12/12 19:53:52;;;;;;;;;38.25;31.25;;;;;10.66;100.00;102371.91;4886960;29;45277;-87
2021/12/12 19:56:21;;;;;;;;;34.00;32.00;;;;;10.66;100.00;102373.72;4888935;29;45568;-85
2021/12/12 19:58:50;;;;;;;;;45.33;35.67;;;;;10.64;100.00;102371.13;4873827;29;44852;-85
2021/12/12 20:01:24;;;;;;;;;40.33;34.33;;;;;10.64;100.00;102373.78;4888487;29;45434;-85
2021/12/12 20:04:02;;;;;;;;;36.75;31.50;;;;;10.65;100.00;102375.50;4886107;29;44827;-84
2021/12/12 20:06:35;;;;;;;;;39.75;32.75;;;;;10.66;100.00;102382.53;4902120;29;45400;-86
2021/12/12 20:09:25;;;;;;;;;41.75;33.75;;;;;10.63;100.00;102380.00;4868830;29;44809;-86
2021/12/12 20:12:33;;;;;;;;;39.50;30.75;;;;;10.63;100.00;102387.09;4876388;29;47069;-84
2021/12/12 20:15:05;;;;;;;;;39.50;32.00;;;;;10.65;100.00;102387.94;4867051;29;45553;-85
2021/12/12 20:17:37;;;;;;;;;42.50;33.50;;;;;10.60;100.00;102388.13;4866333;29;45571;-84
2021/12/12 20:20:17;;;;;;;;;39.75;34.00;;;;;10.62;100.00;102380.06;4862446;29;45401;-85
2021/12/12 20:22:51;;;;;;;;;38.75;33.00;;;;;10.61;100.00;102381.00;4865817;29;46917;-85
2021/12/12 20:25:32;;;;;;;;;40.50;35.75;;;;;10.60;100.00;102376.63;4883851;29;45155;-86
2021/12/12 20:28:26;;;;;;;;;40.75;33.75;;;;;10.61;100.00;102370.38;4866699;29;44756;-85
2021/12/12 20:31:14;;;;;;;;;34.25;30.25;;;;;10.58;100.00;102374.00;4877281;29;44884;-87
2021/12/12 20:33:52;;;;;;;;;39.75;36.00;;;;;10.60;100.00;102377.47;4799219;29;45366;-86
2021/12/12 20:37:23;;;;;;;;;33.00;29.50;;;;;10.59;100.00;102381.06;4812259;29;44928;-86
2021/12/12 20:40:47;;;;;;;;;;;;;;;;;;;;;
2021/12/12 20:43:22;;;;;;;;;31.00;28.50;;;;;10.52;100.00;102380.44;4764381;29;68826;-86
2021/12/12 20:45:56;;;;;;;;;33.25;30.25;;;;;10.53;100.00;102390.13;4754476;29;45501;-84
2021/12/12 20:48:34;;;;;;;;;35.00;31.50;;;;;10.50;100.00;102381.44;4743657;29;44796;-85
2021/12/12 20:51:46;;;;;;;;;36.50;32.00;;;;;10.53;100.00;102383.97;4724918;29;44684;-84
2021/12/12 20:54:17;;;;;;;;;33.75;29.50;;;;;10.51;100.00;102386.69;4737168;29;45375;-86
2021/12/12 20:56:55;;;;;;;;;27.75;26.50;;;;;10.51;100.00;102388.47;4780398;29;45507;-85
2021/12/12 20:59:34;;;;;;;;;32.00;29.50;;;;;10.53;100.00;102389.28;4787364;29;44840;-84
2021/12/12 21:02:51;;;;;;;;;;;;;;;;;;;;;
2021/12/12 21:08:55;;;;;;;;;31.75;30.75;;;;;10.50;100.00;102392.06;4769871;29;45861;-87
2021/12/12 21:11:28;;;;;;;;;32.00;26.75;;;;;10.46;100.00;102382.50;4760459;29;45140;-86
2021/12/12 21:13:55;;;;;;;;;28.25;26.75;;;;;10.50;100.00;102381.44;4758410;29;45276;-85
2021/12/12 21:16:25;;;;;;;;;32.50;27.25;;;;;10.49;100.00;102382.34;4828252;29;44886;-85
2021/12/12 21:18:55;;;;;;;;;25.50;23.75;;;;;10.46;100.00;102372.72;4850379;29;46976;-85
2021/12/12 21:21:30;;;;;;;;;29.00;25.50;;;;;10.50;100.00;102374.34;4849430;29;44967;-86
2021/12/12 21:24:02;;;;;;;;;21.50;21.50;;;;;10.47;100.00;102369.13;4865859;29;44907;-85
2021/12/12 21:26:34;;;;;;;;;29.25;26.75;;;;;10.51;100.00;102383.16;4846845;29;45542;-86
2021/12/12 21:29:07;;;;;;;;;28.75;28.25;;;;;10.55;100.00;102385.63;4844771;29;46014;-85
2021/12/12 21:31:44;;;;;;;;;38.00;30.00;;;;;10.55;100.00;102376.81;4850329;29;44889;-84
2021/12/12 21:34:13;;;;;;;;;27.50;26.75;;;;;10.58;100.00;102379.31;4861766;29;44768;-84
2021/12/12 21:36:52;;;;;;;;;41.00;33.00;;;;;10.61;100.00;102378.34;4860603;29;45299;-85
2021/12/12 21:39:30;;;;;;;;;43.67;34.00;;;;;10.60;100.00;102380.13;4860211;29;45518;-84
2021/12/12 21:42:01;;;;;;;;;36.50;32.75;;;;;10.60;100.00;102380.13;4844451;29;45513;-85
2021/12/12 21:44:39;;;;;;;;;33.50;30.50;;;;;10.61;100.00;102386.31;4865265;29;44827;-84
2021/12/12 21:47:21;;;;;;;;;29.75;29.50;;;;;10.60;100.00;102381.94;4881508;29;45335;-86
2021/12/12 21:49:52;;;;;;;;;34.50;31.50;;;;;10.58;100.00;102379.31;4884156;29;45238;-84
2021/12/12 21:52:30;;;;;;;;;36.00;32.00;;;;;10.59;100.00;102375.75;4880295;29;44880;-85
2021/12/12 21:54:58;;;;;;;;;38.50;33.00;;;;;10.60;100.00;102374.81;4872182;29;45351;-85
2021/12/12 21:57:25;;;;;;;;;36.50;30.25;;;;;10.60;100.00;102374.81;4873376;29;45486;-84
2021/12/12 22:00:32;;;;;;;;;37.00;32.50;;;;;10.60;100.00;102373.97;4869075;29;45322;-84
2021/12/12 22:02:59;;;;;;;;;31.50;31.00;;;;;10.60;100.00;102381.94;4865021;29;44726;-84
2021/12/12 22:05:28;;;;;;;;;40.00;33.25;;;;;10.61;100.00;102378.34;4869572;29;45351;-83
2021/12/12 22:08:08;;;;;;;;;34.25;32.50;;;;;10.61;100.00;102375.69;4873068;29;44857;-83
2021/12/12 22:10:36;;;;;;;;;28.25;28.25;;;;;10.59;100.00;102374.88;4879900;29;45299;-83
2021/12/12 22:13:05;;;;;;;;;35.25;28.75;;;;;10.57;100.00;102374.06;4867464;29;45489;-84
2021/12/12 22:15:31;;;;;;;;;38.25;27.25;;;;;10.58;100.00;102383.78;4863960;29;45591;-84
2021/12/12 22:17:59;;;;;;;;;35.50;32.25;;;;;10.58;100.00;102381.97;4863827;29;45278;-84
2021/12/12 22:20:32;;;;;;;;;28.25;26.50;;;;;10.55;100.00;102377.66;4883954;29;45265;-83
2021/12/12 22:23:07;;;;;;;;;36.50;30.00;;;;;10.54;100.00;102383.06;4885415;29;45224;-83
2021/12/12 22:25:43;;;;;;;;;34.25;29.50;;;;;10.55;100.00;102380.31;4866665;29;44962;-84
2021/12/12 22:28:13;;;;;;;;;34.75;28.75;;;;;10.56;100.00;102378.53;4885632;29;45408;-83
2021/12/12 22:30:42;;;;;;;;;36.25;32.75;;;;;10.55;100.00;102380.31;4885148;29;45384;-84
2021/12/12 22:33:15;;;;;;;;;31.00;25.00;;;;;10.58;100.00;102381.97;4888684;29;44896;-85
2021/12/12 22:35:45;;;;;;;;;41.25;31.50;;;;;10.59;100.00;102383.72;4874031;29;44786;-84
2021/12/12 22:38:30;;;;;;;;;35.00;30.75;;;;;10.61;100.00;102375.69;4871841;29;44869;-85
2021/12/12 22:41:01;;;;;;;;;35.00;32.00;;;;;10.60;100.00;102380.13;4867330;29;46587;-84
2021/12/12 22:43:29;;;;;;;;;35.25;28.50;;;;;10.59;100.00;102386.38;4886572;29;45290;-84
2021/12/12 22:46:05;;;;;;;;;42.00;30.00;;;;;10.58;100.00;102386.44;4890307;29;45350;-84
2021/12/12 22:48:36;;;;;;;;;39.00;33.50;;;;;10.58;100.00;102389.94;4866259;29;44837;-86
2021/12/12 22:51:10;;;;;;;;;40.25;32.75;;;;;10.60;100.00;102390.78;4891617;29;45368;-84
2021/12/12 22:53:40;;;;;;;;;39.75;29.00;;;;;10.58;100.00;102381.97;4876894;29;44887;-83
2021/12/12 22:56:13;;;;;;;;;34.50;30.00;;;;;10.59;100.00;102390.81;4893458;29;44878;-82
2021/12/12 22:59:03;;;;;;;;;35.75;31.75;;;;;10.57;100.00;102384.72;4888049;29;45327;-84
2021/12/12 23:02:03;;;;;;;;;35.75;32.75;;;;;10.55;100.00;102382.97;4871030;29;46474;-83
2021/12/12 23:04:38;;;;;;;;;31.25;30.50;;;;;10.55;100.00;102385.63;4870042;29;45333;-82
2021/12/12 23:07:14;;;;;;;;;31.75;24.50;;;;;10.54;100.00;102391.03;4871106;29;45283;-84
2021/12/12 23:09:49;;;;;;;;;41.50;34.25;;;;;10.53;100.00;102397.25;4888515;29;44575;-85
2021/12/12 23:12:22;;;;;;;;;30.00;28.00;;;;;10.51;100.00;102392.00;4896199;29;45472;-81
2021/12/12 23:15:08;;;;;;;;;32.50;28.00;;;;;10.48;100.00;102391.25;4895124;29;44738;-83
2021/12/12 23:17:40;;;;;;;;;31.50;28.25;;;;;10.48;100.00;102396.56;4894036;29;44829;-83
2021/12/12 23:20:13;;;;;;;;;35.75;31.50;;;;;10.48;100.00;102396.56;4883623;29;45415;-83
2021/12/12 23:22:40;;;;;;;;;30.25;27.75;;;;;10.48;100.00;102393.91;4884111;29;45068;-83
2021/12/12 23:25:29;;;;;;;;;28.60;26.00;;;;;10.46;100.00;102398.44;4883754;29;45492;-82
2021/12/12 23:30:37;;;;;;;;;29.00;26.75;;;;;10.41;100.00;102395.94;4884873;29;45537;-82
2021/12/12 23:33:10;;;;;;;;;26.75;26.75;;;;;10.42;100.00;102403.00;4883467;29;45327;-82
2021/12/12 23:35:42;;;;;;;;;34.00;27.75;;;;;10.45;100.00;102402.03;4867099;29;45245;-82
2021/12/12 23:38:12;;;;;;;;;29.50;28.50;;;;;10.44;100.00;102394.94;4885687;29;44958;-82
2021/12/12 23:40:52;;;;;;;;;27.75;25.75;;;;;10.45;100.00;102394.91;4886007;29;44920;-82
2021/12/12 23:43:42;;;;;;;;;33.75;29.75;;;;;10.46;100.00;102396.63;4884486;29;45397;-83
2021/12/12 23:48:56;;;;;;;;;32.75;29.75;;;;;10.44;100.00;102392.28;4883880;29;45461;-83
2021/12/12 23:51:22;;;;;;;;;31.75;27.25;;;;;10.42;100.00;102389.72;4884823;29;45462;-83
2021/12/12 23:53:53;;;;;;;;;24.75;21.75;;;;;10.40;100.00;102396.88;4882517;29;45100;-83
2021/12/12 23:56:24;;;;;;;;;32.50;26.00;;;;;10.41;100.00;102400.41;4882713;29;45248;-82
2021/12/12 23:58:58;;;;;;;;;35.50;30.25;;;;;10.42;100.00;102399.47;4885331;29;44813;-82
